Cap Coeur — OP5189 — position and weather

sailwx.info

Track history (hours):
 
Tides and Currents Weather Stations Pressure Air Temp Water Temp Dewpoint Dewpoint Depression Visibility Wind Speed Wind Dir Waves Ship Positions

Cap Coeur

Last reported at 2017-Aug-28 11:17 UTC. Time now 2017-Sep-24 21:19 UTC.
Position N 37°37' E 023°37'.
Warning: this ship's position is 27 days out of date.

Type: Pleasure craft. MMSI: 205518930.

Date/timePositionNaut miles runAvg speedWind from/ knotsBaromVisibWave heightAir tempDewpointWater temp
2017-Aug-28 11:17N 37°37' E 023°37'1 3.9
2017-Aug-28 10:55N 37°38' E 023°37'2 4.6
2017-Aug-28 10:30N 37°40' E 023°38'2 3.3
2017-Aug-28 09:55N 37°42' E 023°39'1 3.5
2017-Aug-28 09:30N 37°43' E 023°39'2 3.7
2017-Aug-28 09:00N 37°45' E 023°40'2 4.7
2017-Aug-28 08:29N 37°47' E 023°40'2 4.2
2017-Aug-28 08:00N 37°50' E 023°41'2 4.0
2017-Aug-28 07:30N 37°51' E 023°41'3 0.1
2017-Aug-26 13:58N 37°55' E 023°42'0 0.0
2017-Aug-26 13:28N 37°55' E 023°42'0 0.0
2017-Aug-26 12:58N 37°55' E 023°42'0 0.0
2017-Aug-26 12:28N 37°55' E 023°42'0 0.0
2017-Aug-26 11:52N 37°55' E 023°42'0 0.0
2017-Aug-26 11:25N 37°55' E 023°42'0 0.0
2017-Aug-26 10:58N 37°55' E 023°42'0 0.0
2017-Aug-26 10:28N 37°55' E 023°42'0 0.0
2017-Aug-26 09:58N 37°55' E 023°42'0 0.0
2017-Aug-26 09:28N 37°55' E 023°42'0 0.0
2017-Aug-26 08:52N 37°55' E 023°42'0 1.4
2017-Aug-26 08:30N 37°54' E 023°42'1 2.9
2017-Aug-26 08:00N 37°53' E 023°41'1 2.4
2017-Aug-26 07:30N 37°52' E 023°40'2 4.6
2017-Aug-26 07:00N 37°51' E 023°43'2 3.2
2017-Aug-26 06:30N 37°51' E 023°45'0 0.0
2017-Aug-25 12:23N 37°51' E 023°45'0 0.0
2017-Aug-25 12:00N 37°51' E 023°45'0 0.0
2017-Aug-25 11:29N 37°51' E 023°45'0 0.0
2017-Aug-25 10:56N 37°51' E 023°45'0 0.0
2017-Aug-25 10:20N 37°51' E 023°45'0 0.0
2017-Aug-25 09:56N 37°51' E 023°45'0 0.0
2017-Aug-25 09:29N 37°51' E 023°45'0 0.0
2017-Aug-25 08:56N 37°51' E 023°45'0 0.0
2017-Aug-25 08:26N 37°51' E 023°45'0 0.3
2017-Aug-25 07:59N 37°51' E 023°45'0 0.0
2017-Aug-24 17:28N 37°51' E 023°45'0 0.0
2017-Aug-24 16:49N 37°51' E 023°45'0 0.0
2017-Aug-24 16:28N 37°51' E 023°45'0 0.0
2017-Aug-24 15:58N 37°51' E 023°45'0 0.0
2017-Aug-24 15:22N 37°51' E 023°45'0 0.0
2017-Aug-24 14:58N 37°51' E 023°45'0 0.0
2017-Aug-24 14:25N 37°51' E 023°45'0 0.0
2017-Aug-24 13:58N 37°51' E 023°45'0 0.0
2017-Aug-24 13:25N 37°51' E 023°45'0 0.0
2017-Aug-24 13:00N 37°51' E 023°45'1 2.1
2017-Aug-24 12:30N 37°50' E 023°45'1 2.9
2017-Aug-24 12:00N 37°48' E 023°45'  
2017-Aug-20 09:44N 37°17' E 024°46'1 5.4
2017-Aug-20 09:30N 37°18' E 024°48'3 5.5
2017-Aug-20 09:00N 37°19' E 024°51'3 5.4
2017-Aug-20 08:30N 37°20' E 024°53'3 5.0
2017-Aug-20 08:00N 37°22' E 024°56'5 0.3
2017-Aug-19 16:45N 37°26' E 024°57'1 3.4
2017-Aug-19 16:28N 37°25' E 024°58'1 1.9
2017-Aug-19 15:43N 37°24' E 024°59'1 1.8
2017-Aug-19 15:24N 37°24' E 024°58'1 2.3
2017-Aug-19 14:57N 37°23' E 024°57'  
Track history (hours):
 
Tides and Currents Weather Stations Pressure Air Temp Water Temp Dewpoint Dewpoint Depression Visibility Wind Speed Wind Dir Waves Ship Positions

Cap Coeur

Last reported at 2017-Aug-28 11:17 UTC. Time now 2017-Sep-24 21:19 UTC.
Position N 37°37' E 023°37'.
Warning: this ship's position is 27 days out of date.

Type: Pleasure craft. MMSI: 205518930.

Date/timePositionNaut miles runAvg speedWind from/ knotsBaromVisibWave heightAir tempDewpointWater temp
2017-Aug-28 11:17N 37°37' E 023°37'1 3.9
2017-Aug-28 10:55N 37°38' E 023°37'2 4.6
2017-Aug-28 10:30N 37°40' E 023°38'2 3.3
2017-Aug-28 09:55N 37°42' E 023°39'1 3.5
2017-Aug-28 09:30N 37°43' E 023°39'2 3.7
2017-Aug-28 09:00N 37°45' E 023°40'2 4.7
2017-Aug-28 08:29N 37°47' E 023°40'2 4.2
2017-Aug-28 08:00N 37°50' E 023°41'2 4.0
2017-Aug-28 07:30N 37°51' E 023°41'3 0.1
2017-Aug-26 13:58N 37°55' E 023°42'0 0.0
2017-Aug-26 13:28N 37°55' E 023°42'0 0.0
2017-Aug-26 12:58N 37°55' E 023°42'0 0.0
2017-Aug-26 12:28N 37°55' E 023°42'0 0.0
2017-Aug-26 11:52N 37°55' E 023°42'0 0.0
2017-Aug-26 11:25N 37°55' E 023°42'0 0.0
2017-Aug-26 10:58N 37°55' E 023°42'0 0.0
2017-Aug-26 10:28N 37°55' E 023°42'0 0.0
2017-Aug-26 09:58N 37°55' E 023°42'0 0.0
2017-Aug-26 09:28N 37°55' E 023°42'0 0.0
2017-Aug-26 08:52N 37°55' E 023°42'0 1.4
2017-Aug-26 08:30N 37°54' E 023°42'1 2.9
2017-Aug-26 08:00N 37°53' E 023°41'1 2.4
2017-Aug-26 07:30N 37°52' E 023°40'2 4.6
2017-Aug-26 07:00N 37°51' E 023°43'2 3.2
2017-Aug-26 06:30N 37°51' E 023°45'0 0.0
2017-Aug-25 12:23N 37°51' E 023°45'0 0.0
2017-Aug-25 12:00N 37°51' E 023°45'0 0.0
2017-Aug-25 11:29N 37°51' E 023°45'0 0.0
2017-Aug-25 10:56N 37°51' E 023°45'0 0.0
2017-Aug-25 10:20N 37°51' E 023°45'0 0.0
2017-Aug-25 09:56N 37°51' E 023°45'0 0.0
2017-Aug-25 09:29N 37°51' E 023°45'0 0.0
2017-Aug-25 08:56N 37°51' E 023°45'0 0.0
2017-Aug-25 08:26N 37°51' E 023°45'0 0.3
2017-Aug-25 07:59N 37°51' E 023°45'0 0.0
2017-Aug-24 17:28N 37°51' E 023°45'0 0.0
2017-Aug-24 16:49N 37°51' E 023°45'0 0.0
2017-Aug-24 16:28N 37°51' E 023°45'0 0.0
2017-Aug-24 15:58N 37°51' E 023°45'0 0.0
2017-Aug-24 15:22N 37°51' E 023°45'0 0.0
2017-Aug-24 14:58N 37°51' E 023°45'0 0.0
2017-Aug-24 14:25N 37°51' E 023°45'0 0.0
2017-Aug-24 13:58N 37°51' E 023°45'0 0.0
2017-Aug-24 13:25N 37°51' E 023°45'0 0.0
2017-Aug-24 13:00N 37°51' E 023°45'1 2.1
2017-Aug-24 12:30N 37°50' E 023°45'1 2.9
2017-Aug-24 12:00N 37°48' E 023°45'  
2017-Aug-20 09:44N 37°17' E 024°46'1 5.4
2017-Aug-20 09:30N 37°18' E 024°48'3 5.5
2017-Aug-20 09:00N 37°19' E 024°51'3 5.4
2017-Aug-20 08:30N 37°20' E 024°53'3 5.0
2017-Aug-20 08:00N 37°22' E 024°56'5 0.3
2017-Aug-19 16:45N 37°26' E 024°57'1 3.4
2017-Aug-19 16:28N 37°25' E 024°58'1 1.9
2017-Aug-19 15:43N 37°24' E 024°59'1 1.8
2017-Aug-19 15:24N 37°24' E 024°58'1 2.3
2017-Aug-19 14:57N 37°23' E 024°57'  

Dump ship's entire track history